Flight Track Log - Related Links

Times and Time Zones

All times are in EDT time to prevent confusion due to time zone crossing. See the SWA378 flight status page for this flight to view local times or setup timezone preferences in your user account.

Time Position Orientation Groundspeed Altitude Reporting Facility
EDT Latitude Longitude Course Direction KTS MPH feet Rate Location/Type
Wed 11:12:31 AM 37.3833 -121.9500 360° North 167 192 1,400  Level Northern Cal TRACON
Wed 11:13:25 AM 37.4333 -121.9500 360° North 238 274 3,600 2,579 Climbing Northern Cal TRACON
Wed 11:14:25 AM 37.4000 -121.9000 130° Southeast 247 284 6,300 2,919 Climbing Northern Cal TRACON
Wed 11:15:16 AM 37.3536 -121.8406 134° Southeast 260 299 9,000 3,107 Climbing Oakland Center
Wed 11:16:17 AM 37.2931 -121.7733 139° Southeast 286 329 12,100 2,754 Climbing Oakland Center
Wed 11:17:18 AM 37.2203 -121.6911 138° Southeast 337 388 14,600 2,656 Climbing Oakland Center
Wed 11:18:19 AM 37.1406 -121.6017 138° Southeast 372 428 17,500 2,683 Climbing Oakland Center
Wed 11:19:21 AM 37.0569 -121.5100 139° Southeast 388 447 20,100 2,341 Climbing Oakland Center
Wed 11:20:22 AM 36.9725 -121.4128 137° Southeast 405 466 22,300 2,459 Climbing Oakland Center
Wed 11:21:23 AM 36.8681 -121.2969 138° Southeast 418 481 25,100 2,164 Climbing Oakland Center
Wed 11:22:24 AM 36.7778 -121.1983 139° Southeast 426 490 26,700 1,659 Climbing Oakland Center
Wed 11:23:26 AM 36.6847 -121.0961 139° Southeast 441 507 28,500 1,561 Climbing Oakland Center
Wed 11:24:27 AM 36.5889 -120.9914 139° Southeast 455 524 29,900 1,721 Climbing Oakland Center
Wed 11:25:28 AM 36.4936 -120.8869 139° Southeast 457 526 32,000 1,869 Climbing Oakland Center
Wed 11:26:29 AM 36.4006 -120.7844 138° Southeast 450 518 33,700 1,561 Climbing Oakland Center
Wed 11:27:31 AM 36.3192 -120.6700 131° Southeast 442 509 35,200 1,366 Climbing Oakland Center
Wed 11:28:32 AM 36.2444 -120.5458 127° Southeast 448 516 36,500 885 Climbing Oakland Center
Wed 11:29:33 AM 36.1661 -120.4228 128° Southeast 453 521 37,000 246 Climbing Oakland Center
Wed 11:30:34 AM 36.0889 -120.2981 127° Southeast 455 524 37,000  Level Oakland Center
Wed 11:31:36 AM 36.0108 -120.1778 129° Southeast 450 518 37,000  Level Oakland Center
Wed 11:32:37 AM 35.9328 -120.0550 128° Southeast 452 520 37,000  Level Oakland Center
Wed 11:33:38 AM 35.8394 -119.9061 128° Southeast 454 522 37,000  Level Oakland Center
Wed 11:34:39 AM 35.7622 -119.7850 128° Southeast 451 519 37,000  Level Oakland Center
Wed 11:35:41 AM 35.6833 -119.6633 129° Southeast 452 520 37,000  Level Oakland Center
Wed 11:36:42 AM 35.6058 -119.5422 128° Southeast 450 518 37,000  Level Oakland Center
Wed 11:37:43 AM 35.5269 -119.4214 129° Southeast 452 520 37,000  Level Oakland Center
Wed 11:38:44 AM 35.4492 -119.3022 129° Southeast 449 517 37,000 -293 Level Oakland Center
Wed 11:39:46 AM 35.3711 -119.1825 129° Southeast 449 517 36,400 -780 Descending Oakland Center
Wed 11:40:47 AM 35.2933 -119.0642 129° Southeast 446 513 35,400 -738 Descending Oakland Center
Wed 11:41:48 AM 35.2158 -118.9436 128° Southeast 450 518 34,900 -197 Descending Oakland Center
Wed 11:42:49 AM 35.1389 -118.8267 129° Southeast 442 509 35,000 49 Climbing Oakland Center
Wed 11:43:51 AM 35.0639 -118.7092 128° Southeast 439 505 35,000 -1,122 Level Oakland Center
Wed 11:44:52 AM 34.9858 -118.5931 129° Southeast 441 507 32,700 -2,643 Descending Oakland Center
Wed 11:46:14 AM 34.8783 -118.4319 129° Southeast 441 507 28,700 -2,958 Descending Los Angeles Center
Wed 11:47:16 AM 34.7889 -118.2992 129° Southeast 431 496 25,600 -2,323 Descending Los Angeles Center
Wed 11:48:18 AM 34.7172 -118.1942 130° Southeast 415 478 23,900 -1,210 Descending Los Angeles Center
Wed 11:49:20 AM 34.6469 -118.0908 130° Southeast 404 465 23,100 -726 Descending Los Angeles Center
Wed 11:50:22 AM 34.5897 -117.9739 121° Southeast 409 471 22,400 -1,632 Descending Los Angeles Center
Wed 11:51:25 AM 34.5353 -117.8572 120° Southeast 401 461 19,700 -2,352 Descending Los Angeles Center
Wed 11:52:27 AM 34.4833 -117.7436 119° Southeast 391 450 17,500 -2,419 Descending Los Angeles Center
Wed 11:53:29 AM 34.4242 -117.6133 119° Southeast 373 429 14,700 -1,742 Descending Los Angeles Center
Wed 11:54:31 AM 34.3797 -117.5167 119° Southeast 353 406 13,900 -919 Descending Los Angeles Center
Wed 11:55:33 AM 34.3311 -117.4419 128° Southeast 301 346 12,800 -1,161 Descending Los Angeles Center
Wed 11:56:35 AM 34.2453 -117.4111 163° South 268 308 11,500 -1,161 Descending Los Angeles Center
Wed 11:57:37 AM 34.1872 -117.3992 170° South 220 253 10,400 -1,548 Descending Los Angeles Center
Wed 11:58:39 AM 34.1381 -117.3883 170° South 176 203 8,300 -2,081 Descending Los Angeles Center
Wed 11:59:41 AM 34.0994 -117.4183 213° Southwest 176 203 6,100 -2,081 Descending Los Angeles Center
Wed 12:00:43 PM 34.0667 -117.4583 225° Southwest 169 194 4,000 -1,790 Descending Los Angeles Center
Wed 12:01:45 PM 34.0581 -117.5083 258° West 165 190 2,400 -1,161 Descending Los Angeles Center
Wed 12:02:47 PM 34.0589 -117.5611 271° West 159 183 1,600 -774 Descending Los Angeles Center
Wed 12:04:00 PM 34.0500 -117.6000 270° West  Level FlightAware Approximate
Wed 12:11:00 PM 34.0560 -117.6012 270° West  Level Estimated
Wed 12:12:00 PM 34.0500 -117.6000 270° West  Level FlightAware Approximate

Login

Don't have an account? Register now (free) for customized features, flight alerts, and more!